createdAt,value
2022-09-10T00:01:18.331Z,50.60
2022-09-10T00:04:20.037Z,50.60
2022-09-10T00:07:21.745Z,50.50
2022-09-10T00:10:23.963Z,50.50
2022-09-10T00:13:25.672Z,50.50
2022-09-10T00:16:28.798Z,50.60
2022-09-10T00:19:31.336Z,51.10
2022-09-10T00:22:34.324Z,50.50
2022-09-10T00:25:36.055Z,50.50
2022-09-10T00:28:38.507Z,50.60
2022-09-10T00:31:40.892Z,50.50
2022-09-10T00:34:42.689Z,50.50
2022-09-10T00:37:44.417Z,50.40
2022-09-10T00:40:46.765Z,50.50
2022-09-10T00:43:50.492Z,50.50
2022-09-10T00:46:54.377Z,50.50
2022-09-10T00:50:05.453Z,50.50
2022-09-10T00:53:11.100Z,50.50
2022-09-10T00:56:14.293Z,50.40
2022-09-10T00:59:20.226Z,50.50
2022-09-10T01:02:22.091Z,50.40
2022-09-10T01:05:26.737Z,50.40
2022-09-10T01:08:28.653Z,50.50
2022-09-10T01:12:04.931Z,50.40
2022-09-10T01:15:40.906Z,50.40
2022-09-10T01:19:03.302Z,50.50
2022-09-10T01:22:34.855Z,50.50
2022-09-10T01:26:12.651Z,50.40
2022-09-10T01:29:23.730Z,50.40
2022-09-10T01:32:34.973Z,50.40
2022-09-10T01:35:46.555Z,50.30
2022-09-10T01:38:50.778Z,50.30
2022-09-10T01:41:54.481Z,50.30
2022-09-10T01:45:01.062Z,50.40
2022-09-10T01:48:15.106Z,50.40
2022-09-10T01:51:49.026Z,50.30
2022-09-10T01:54:56.952Z,50.40
2022-09-10T01:58:24.148Z,50.30
2022-09-10T02:01:47.330Z,50.30
2022-09-10T02:04:51.463Z,50.30
2022-09-10T02:07:58.470Z,50.30
2022-09-10T02:11:06.319Z,50.30
2022-09-10T02:14:14.053Z,50.30
2022-09-10T02:17:38.391Z,50.20
2022-09-10T02:20:41.387Z,50.20
2022-09-10T02:23:46.344Z,50.20
2022-09-10T02:26:49.180Z,50.20
2022-09-10T02:29:50.879Z,50.20
2022-09-10T02:32:52.639Z,50.20
2022-09-10T02:35:55.602Z,50.20
2022-09-10T02:39:03.663Z,50.20
2022-09-10T02:42:06.712Z,50.20
2022-09-10T02:45:08.971Z,50.10
2022-09-10T02:48:11.826Z,50.20
2022-09-10T02:51:13.924Z,50.10
2022-09-10T02:54:16.074Z,50.20
2022-09-10T02:57:18.162Z,50.10
2022-09-10T03:00:21.205Z,50.20
2022-09-10T03:03:23.274Z,50.20
2022-09-10T03:06:26.859Z,50.20
2022-09-10T03:09:28.892Z,50.20
2022-09-10T03:12:30.693Z,50.20
2022-09-10T03:15:32.491Z,50.20
2022-09-10T03:18:35.217Z,50.20
2022-09-10T03:21:37.083Z,50.10
2022-09-10T03:24:38.812Z,50.20
2022-09-10T03:27:41.122Z,50.20
2022-09-10T03:30:43.720Z,50.10
2022-09-10T03:33:46.257Z,50.10
2022-09-10T03:36:48.737Z,50.10
2022-09-10T03:39:50.522Z,50.10
2022-09-10T03:42:52.343Z,50.00
2022-09-10T03:45:54.307Z,50.10
2022-09-10T03:48:57.090Z,50.10
2022-09-10T03:52:00.774Z,50.10
2022-09-10T03:55:02.730Z,50.00
2022-09-10T03:58:06.152Z,50.00
2022-09-10T04:01:08.026Z,50.10
2022-09-10T04:04:14.831Z,50.10
2022-09-10T04:07:16.561Z,50.00
2022-09-10T04:10:20.300Z,50.10
2022-09-10T04:13:23.026Z,50.10
2022-09-10T04:16:24.968Z,50.10
2022-09-10T04:19:27.982Z,50.10
2022-09-10T04:22:30.230Z,50.20
2022-09-10T04:25:33.928Z,50.00
2022-09-10T04:28:36.058Z,50.00
2022-09-10T04:31:38.838Z,50.10
2022-09-10T04:34:46.480Z,50.00
2022-09-10T04:37:48.601Z,50.00
2022-09-10T04:40:50.722Z,50.00
2022-09-10T04:43:52.462Z,50.00
2022-09-10T04:46:54.412Z,50.00
2022-09-10T04:49:56.187Z,50.00
2022-09-10T04:52:59.005Z,50.00
2022-09-10T04:56:01.592Z,50.00
2022-09-10T04:59:04.869Z,50.00
2022-09-10T05:02:10.420Z,50.00
2022-09-10T05:05:12.268Z,50.00
2022-09-10T05:08:14.513Z,49.90
2022-09-10T05:11:21.926Z,49.90
2022-09-10T05:14:25.291Z,50.00
2022-09-10T05:17:27.258Z,49.90
2022-09-10T05:20:29.119Z,49.90
2022-09-10T05:23:32.110Z,50.00
2022-09-10T05:26:35.800Z,50.00
2022-09-10T05:29:37.695Z,49.90
2022-09-10T05:32:40.116Z,50.00
2022-09-10T05:35:42.186Z,49.90
2022-09-10T05:38:45.785Z,50.00
2022-09-10T05:41:47.913Z,49.90
2022-09-10T05:44:50.575Z,49.90
2022-09-10T05:47:52.959Z,50.50
2022-09-10T05:50:57.722Z,50.00
2022-09-10T05:54:00.154Z,49.90
2022-09-10T05:57:03.383Z,50.00
2022-09-10T06:00:09.882Z,49.90
2022-09-10T06:03:17.432Z,49.90
2022-09-10T06:06:22.512Z,50.00
2022-09-10T06:09:32.623Z,50.00
2022-09-10T06:12:40.139Z,49.90
2022-09-10T06:15:42.534Z,49.80
2022-09-10T06:18:45.184Z,49.80
2022-09-10T06:21:52.272Z,49.90
2022-09-10T06:24:55.365Z,49.80
2022-09-10T06:27:59.112Z,49.80
2022-09-10T06:31:04.330Z,49.90
2022-09-10T06:34:07.474Z,49.90
2022-09-10T06:37:09.763Z,49.90
2022-09-10T06:40:13.237Z,49.80
2022-09-10T06:43:17.127Z,49.80
2022-09-10T06:47:17.836Z,49.80
2022-09-10T06:50:01.818Z,49.80
2022-09-10T06:53:05.913Z,49.80
2022-09-10T06:56:10.766Z,49.80
2022-09-10T06:59:14.645Z,49.90
2022-09-10T07:02:22.037Z,49.80
2022-09-10T07:05:28.601Z,49.80
2022-09-10T07:08:31.165Z,49.70
2022-09-10T07:11:39.243Z,49.70
2022-09-10T07:14:44.157Z,49.80
2022-09-10T07:17:46.874Z,49.70
2022-09-10T07:20:48.614Z,49.70
2022-09-10T07:23:55.642Z,50.30
2022-09-10T07:26:57.649Z,49.80
2022-09-10T07:29:59.577Z,49.80
2022-09-10T07:33:01.379Z,49.80
2022-09-10T07:36:06.385Z,49.70
2022-09-10T07:39:10.329Z,49.80
2022-09-10T07:42:14.556Z,49.80
2022-09-10T07:45:16.893Z,49.70
2022-09-10T07:48:19.605Z,49.80
2022-09-10T07:51:21.641Z,49.80
2022-09-10T07:54:24.743Z,49.80
2022-09-10T07:57:31.462Z,50.00
2022-09-10T08:00:34.632Z,50.00
2022-09-10T08:03:41.645Z,49.80
2022-09-10T08:06:45.746Z,49.90
2022-09-10T08:09:48.529Z,50.00
2022-09-10T08:12:52.837Z,49.90
2022-09-10T08:15:57.730Z,50.10
2022-09-10T08:19:00.509Z,50.10
2022-09-10T08:22:07.426Z,50.10
2022-09-10T08:25:16.459Z,49.80
2022-09-10T08:28:25.705Z,49.90
2022-09-10T08:31:29.090Z,50.20
2022-09-10T08:34:40.474Z,50.30
2022-09-10T08:37:44.242Z,50.20
2022-09-10T08:40:50.043Z,50.30
2022-09-10T08:43:59.968Z,50.80
2022-09-10T08:47:09.898Z,50.10
2022-09-10T08:50:25.290Z,50.10
2022-09-10T08:53:41.931Z,50.10
2022-09-10T08:56:45.141Z,50.00
2022-09-10T08:59:50.112Z,50.10
2022-09-10T09:03:07.004Z,50.10
2022-09-10T09:06:30.188Z,50.00
2022-09-10T09:09:32.746Z,49.90
2022-09-10T09:12:47.715Z,49.90
2022-09-10T09:15:52.386Z,50.10
2022-09-10T09:19:18.132Z,50.00
2022-09-10T09:22:53.830Z,49.90
2022-09-10T09:26:12.829Z,50.00
2022-09-10T09:29:44.751Z,50.30
2022-09-10T09:32:49.610Z,50.20
2022-09-10T09:36:00.767Z,50.10
2022-09-10T09:39:26.354Z,50.10
2022-09-10T09:42:31.323Z,50.10
2022-09-10T09:45:39.719Z,50.10
2022-09-10T09:48:42.406Z,50.10
2022-09-10T09:51:50.174Z,50.10
2022-09-10T09:55:14.190Z,50.10
2022-09-10T09:58:26.373Z,50.10
2022-09-10T10:01:28.836Z,50.00
2022-09-10T10:04:31.145Z,50.10
2022-09-10T10:07:36.398Z,50.00
2022-09-10T10:10:38.229Z,50.10
2022-09-10T10:13:45.260Z,50.10
2022-09-10T10:16:48.450Z,50.10
2022-09-10T10:19:58.955Z,50.00
2022-09-10T10:23:22.558Z,50.10
2022-09-10T10:26:30.324Z,50.00
2022-09-10T10:29:32.512Z,50.00
2022-09-10T10:32:42.805Z,50.40
2022-09-10T10:36:10.301Z,50.10
2022-09-10T10:39:50.644Z,50.00
2022-09-10T10:43:27.888Z,50.00
2022-09-10T10:47:06.955Z,50.00
2022-09-10T10:50:26.280Z,50.00
2022-09-10T10:53:35.962Z,50.00
2022-09-10T10:56:45.883Z,50.10
2022-09-10T11:00:01.159Z,50.00
2022-09-10T11:03:20.119Z,50.00
2022-09-10T11:06:26.400Z,49.90
2022-09-10T11:09:33.983Z,49.90
2022-09-10T11:12:49.288Z,50.20
2022-09-10T11:16:15.188Z,50.00
2022-09-10T11:19:22.862Z,50.00
2022-09-10T11:22:31.058Z,50.20
2022-09-10T11:25:39.986Z,50.20
2022-09-10T11:28:59.238Z,50.20
2022-09-10T11:32:04.622Z,50.30
2022-09-10T11:35:29.902Z,50.10
2022-09-10T11:38:40.540Z,50.10
2022-09-10T11:41:45.823Z,50.20
2022-09-10T11:45:04.841Z,50.30
2022-09-10T11:48:41.520Z,50.30
2022-09-10T11:51:44.870Z,50.20
2022-09-10T11:54:47.446Z,51.40
2022-09-10T11:58:27.352Z,51.10
2022-09-10T12:01:57.190Z,50.50
2022-09-10T12:05:31.186Z,50.40
2022-09-10T12:08:49.805Z,50.50
2022-09-10T12:12:09.045Z,50.50
2022-09-10T12:15:27.037Z,51.10
2022-09-10T12:18:43.064Z,51.00
2022-09-10T12:22:03.999Z,50.50
2022-09-10T12:25:34.219Z,50.60
2022-09-10T12:28:42.430Z,50.50
2022-09-10T12:32:15.354Z,50.40
2022-09-10T12:35:35.342Z,50.20
2022-09-10T12:38:49.817Z,50.10
2022-09-10T12:41:51.465Z,50.10
2022-09-10T12:44:54.063Z,50.20
2022-09-10T12:47:55.933Z,50.10
2022-09-10T12:51:00.862Z,50.20
2022-09-10T12:54:29.575Z,50.30
2022-09-10T12:57:39.626Z,50.50
2022-09-10T13:00:56.429Z,50.60
2022-09-10T13:04:02.533Z,50.60
2022-09-10T13:07:22.265Z,50.70
2022-09-10T13:10:27.383Z,50.80
2022-09-10T13:13:36.271Z,50.60
2022-09-10T13:16:40.747Z,51.10
2022-09-10T13:19:42.927Z,50.70
2022-09-10T13:23:11.157Z,50.80
2022-09-10T13:26:37.365Z,50.80
2022-09-10T13:29:43.361Z,50.80
2022-09-10T13:33:05.116Z,50.70
2022-09-10T13:36:26.042Z,50.80
2022-09-10T13:39:27.746Z,50.80
2022-09-10T13:43:15.068Z,50.80
2022-09-10T13:46:30.288Z,50.60
2022-09-10T13:50:03.295Z,50.80
2022-09-10T13:53:10.661Z,50.80
2022-09-10T13:56:27.084Z,50.90
2022-09-10T13:59:31.839Z,51.50
2022-09-10T14:03:00.463Z,50.80
2022-09-10T14:06:16.701Z,50.70
2022-09-10T14:09:19.716Z,50.50
2022-09-10T14:12:26.402Z,50.70
2022-09-10T14:15:36.271Z,50.60
2022-09-10T14:18:55.564Z,50.80
2022-09-10T14:21:57.521Z,50.90
2022-09-10T14:25:02.573Z,50.70
2022-09-10T14:28:16.341Z,50.80
2022-09-10T14:31:27.027Z,50.90
2022-09-10T14:34:34.796Z,50.90
2022-09-10T14:37:38.041Z,51.00
2022-09-10T14:40:39.804Z,51.00
2022-09-10T14:43:41.643Z,51.00
2022-09-10T14:46:55.029Z,51.00
2022-09-10T14:50:36.757Z,51.10
2022-09-10T14:53:39.547Z,50.90
2022-09-10T14:56:44.306Z,51.00
2022-09-10T14:59:46.422Z,51.00
2022-09-10T15:02:50.555Z,51.00
2022-09-10T15:05:52.265Z,50.90
2022-09-10T15:08:56.184Z,51.00
2022-09-10T15:12:06.198Z,51.60
2022-09-10T15:15:17.170Z,51.40
2022-09-10T15:18:19.510Z,50.90
2022-09-10T15:21:22.221Z,50.90
2022-09-10T15:24:24.719Z,50.90
2022-09-10T15:27:26.753Z,50.90
2022-09-10T15:30:28.530Z,50.90
2022-09-10T15:33:30.357Z,50.90
2022-09-10T15:36:33.049Z,50.90
2022-09-10T15:39:37.919Z,51.40
2022-09-10T15:42:39.698Z,50.90
2022-09-10T15:45:41.427Z,50.90
2022-09-10T15:48:45.025Z,51.00
2022-09-10T15:51:46.742Z,50.90
2022-09-10T15:54:48.450Z,51.00
2022-09-10T15:57:51.660Z,50.90
2022-09-10T16:00:53.410Z,51.00
2022-09-10T16:03:57.543Z,50.90
2022-09-10T16:06:59.258Z,50.90
2022-09-10T16:10:01.211Z,51.00
2022-09-10T16:13:03.082Z,50.90
2022-09-10T16:16:08.179Z,50.90
2022-09-10T16:19:12.894Z,51.00
2022-09-10T16:22:18.659Z,50.90
2022-09-10T16:25:23.328Z,50.90
2022-09-10T16:28:25.847Z,51.00
2022-09-10T16:31:36.296Z,50.90
2022-09-10T16:34:38.541Z,51.00
2022-09-10T16:37:40.611Z,50.90
2022-09-10T16:40:42.370Z,51.00
2022-09-10T16:43:44.346Z,51.00
2022-09-10T16:46:47.043Z,51.10
2022-09-10T16:49:48.751Z,51.00
2022-09-10T16:52:52.106Z,51.00
2022-09-10T16:56:01.155Z,51.20
2022-09-10T16:59:03.044Z,51.10
2022-09-10T17:02:05.329Z,51.10
2022-09-10T17:05:07.384Z,51.00
2022-09-10T17:08:09.085Z,51.20
2022-09-10T17:11:12.836Z,51.10
2022-09-10T17:14:14.579Z,51.00
2022-09-10T17:17:16.294Z,51.00
2022-09-10T17:20:19.369Z,51.00
2022-09-10T17:23:21.103Z,50.90
2022-09-10T17:26:24.284Z,51.00
2022-09-10T17:29:26.210Z,51.00
2022-09-10T17:32:27.914Z,51.10
2022-09-10T17:35:29.691Z,51.10
2022-09-10T17:38:33.897Z,51.00
2022-09-10T17:41:35.981Z,51.30
2022-09-10T17:44:37.670Z,51.20
2022-09-10T17:47:39.381Z,51.10
2022-09-10T17:50:46.360Z,51.10
2022-09-10T17:53:48.649Z,51.10
2022-09-10T17:56:50.383Z,51.00
2022-09-10T17:59:52.108Z,51.10
2022-09-10T18:02:53.890Z,51.10
2022-09-10T18:05:56.887Z,51.10
2022-09-10T18:09:00.402Z,51.10
2022-09-10T18:12:02.752Z,51.20
2022-09-10T18:15:05.003Z,51.10
2022-09-10T18:18:06.736Z,51.00
2022-09-10T18:21:13.886Z,51.10
2022-09-10T18:24:24.018Z,51.10
2022-09-10T18:27:26.276Z,51.50
2022-09-10T18:30:28.628Z,51.00
2022-09-10T18:33:38.281Z,51.00
2022-09-10T18:36:40.091Z,51.00
2022-09-10T18:39:42.024Z,51.00
2022-09-10T18:42:46.749Z,50.90
2022-09-10T18:45:48.623Z,51.00
2022-09-10T18:48:51.047Z,51.10
2022-09-10T18:51:55.090Z,51.00
2022-09-10T18:54:56.838Z,51.00
2022-09-10T18:57:58.593Z,51.00
2022-09-10T19:01:13.807Z,51.50
2022-09-10T19:04:18.651Z,51.00
2022-09-10T19:07:21.184Z,51.00
2022-09-10T19:10:22.879Z,50.90
2022-09-10T19:13:25.160Z,51.00
2022-09-10T19:16:30.180Z,50.90
2022-09-10T19:19:34.827Z,50.90
2022-09-10T19:22:36.845Z,51.00
2022-09-10T19:25:38.762Z,51.10
2022-09-10T19:28:40.633Z,51.00
2022-09-10T19:31:42.812Z,50.90
2022-09-10T19:34:44.613Z,51.00
2022-09-10T19:37:48.169Z,51.00
2022-09-10T19:40:50.251Z,51.00
2022-09-10T19:43:53.611Z,51.00
2022-09-10T19:46:55.353Z,51.10
2022-09-10T19:49:58.984Z,51.00
2022-09-10T19:53:00.670Z,51.00
2022-09-10T19:56:19.613Z,50.90
2022-09-10T19:59:22.644Z,50.90
2022-09-10T20:02:24.382Z,51.10
2022-09-10T20:05:26.982Z,51.00
2022-09-10T20:08:28.714Z,51.00
2022-09-10T20:11:32.908Z,50.90
2022-09-10T20:14:34.630Z,51.00
2022-09-10T20:17:36.355Z,51.10
2022-09-10T20:20:38.083Z,51.10
2022-09-10T20:23:45.067Z,51.10
2022-09-10T20:26:48.832Z,51.00
2022-09-10T20:29:50.795Z,51.10
2022-09-10T20:32:52.523Z,51.00
2022-09-10T20:35:54.226Z,51.00
2022-09-10T20:38:56.255Z,51.10
2022-09-10T20:41:58.474Z,51.10
2022-09-10T20:45:00.227Z,51.00
2022-09-10T20:48:02.702Z,51.00
2022-09-10T20:51:04.541Z,51.10
2022-09-10T20:54:08.319Z,51.10
2022-09-10T20:57:11.383Z,51.00
2022-09-10T21:00:13.772Z,51.00
2022-09-10T21:03:15.483Z,51.00
2022-09-10T21:06:19.450Z,51.00
2022-09-10T21:09:21.234Z,50.90
2022-09-10T21:12:22.968Z,51.00
2022-09-10T21:15:24.756Z,50.90
2022-09-10T21:18:26.597Z,51.00
2022-09-10T21:21:30.753Z,50.90
2022-09-10T21:24:32.467Z,50.90
2022-09-10T21:27:34.241Z,50.90
2022-09-10T21:30:35.949Z,50.90
2022-09-10T21:33:37.698Z,50.80
2022-09-10T21:36:41.136Z,50.90
2022-09-10T21:39:44.017Z,50.90
2022-09-10T21:42:45.736Z,50.80
2022-09-10T21:45:48.118Z,50.80
2022-09-10T21:48:50.710Z,50.90
2022-09-10T21:51:55.159Z,50.90
2022-09-10T21:54:59.486Z,51.00
2022-09-10T21:58:01.204Z,50.80
2022-09-10T22:01:08.333Z,50.90
2022-09-10T22:04:11.142Z,50.80
2022-09-10T22:07:14.123Z,50.80
2022-09-10T22:10:18.548Z,50.90
2022-09-10T22:13:20.851Z,50.80
2022-09-10T22:16:23.034Z,50.80
2022-09-10T22:19:25.787Z,50.80
2022-09-10T22:22:28.019Z,51.10
2022-09-10T22:25:30.150Z,50.80
2022-09-10T22:28:34.950Z,50.90
2022-09-10T22:31:36.903Z,50.80
2022-09-10T22:34:38.945Z,50.80
2022-09-10T22:37:40.646Z,50.80
2022-09-10T22:40:42.318Z,50.80
2022-09-10T22:43:44.004Z,50.80
2022-09-10T22:46:46.023Z,50.80
2022-09-10T22:49:47.757Z,50.80
2022-09-10T22:52:49.614Z,50.80
2022-09-10T22:55:51.441Z,50.80
2022-09-10T22:58:55.511Z,50.90
2022-09-10T23:01:57.311Z,50.90
2022-09-10T23:04:59.920Z,50.90
2022-09-10T23:08:01.825Z,50.80
2022-09-10T23:11:12.231Z,50.80
2022-09-10T23:14:17.663Z,50.80
2022-09-10T23:17:22.426Z,50.80
2022-09-10T23:20:24.964Z,50.90
2022-09-10T23:23:27.465Z,50.80
2022-09-10T23:26:29.723Z,50.80
2022-09-10T23:29:31.759Z,50.90
2022-09-10T23:32:33.468Z,50.90
2022-09-10T23:35:35.165Z,50.80
2022-09-10T23:38:38.251Z,50.80
2022-09-10T23:41:41.641Z,50.70
2022-09-10T23:44:44.602Z,50.80
2022-09-10T23:47:46.622Z,50.80
2022-09-10T23:50:50.385Z,50.70
2022-09-10T23:53:52.103Z,50.70
2022-09-10T23:56:53.807Z,50.70
2022-09-10T23:59:55.893Z,50.60
